sensor_id;sensor_type;location;lat;lon;timestamp;pressure;altitude;pressure_sealevel;temperature;humidity
45050;BME280;61798;48.048;-1.928;2023-05-14T00:00:56;101539.72;;;8.71;100.00
45050;BME280;61798;48.048;-1.928;2023-05-14T00:03:02;101540.69;;;8.70;100.00
45050;BME280;61798;48.048;-1.928;2023-05-14T00:05:08;101503.63;;;8.49;100.00
45050;BME280;61798;48.048;-1.928;2023-05-14T00:07:14;101502.78;;;8.48;100.00
45050;BME280;61798;48.048;-1.928;2023-05-14T00:09:21;101535.38;;;8.52;100.00
45050;BME280;61798;48.048;-1.928;2023-05-14T00:11:27;101504.06;;;8.35;100.00
45050;BME280;61798;48.048;-1.928;2023-05-14T00:13:32;101534.28;;;8.90;100.00
45050;BME280;61798;48.048;-1.928;2023-05-14T00:15:38;101550.00;;;8.93;100.00
45050;BME280;61798;48.048;-1.928;2023-05-14T00:17:44;101507.84;;;8.33;100.00
45050;BME280;61798;48.048;-1.928;2023-05-14T00:19:50;101515.00;;;8.51;100.00
45050;BME280;61798;48.048;-1.928;2023-05-14T00:21:56;101541.81;;;8.94;100.00
45050;BME280;61798;48.048;-1.928;2023-05-14T00:24:02;101521.38;;;8.58;100.00
45050;BME280;61798;48.048;-1.928;2023-05-14T00:26:08;101520.88;;;8.54;100.00
45050;BME280;61798;48.048;-1.928;2023-05-14T00:28:14;101504.72;;;8.38;100.00
45050;BME280;61798;48.048;-1.928;2023-05-14T00:30:20;101521.09;;;8.61;100.00
45050;BME280;61798;48.048;-1.928;2023-05-14T00:32:25;101490.66;;;8.27;100.00
45050;BME280;61798;48.048;-1.928;2023-05-14T00:34:31;101498.97;;;8.24;100.00
45050;BME280;61798;48.048;-1.928;2023-05-14T00:36:37;101477.91;;;8.21;100.00
45050;BME280;61798;48.048;-1.928;2023-05-14T00:38:43;101497.25;;;8.68;100.00
45050;BME280;61798;48.048;-1.928;2023-05-14T00:40:49;101525.22;;;8.82;100.00
45050;BME280;61798;48.048;-1.928;2023-05-14T00:42:57;101492.94;;;8.49;100.00
45050;BME280;61798;48.048;-1.928;2023-05-14T00:45:04;101497.56;;;8.65;100.00
45050;BME280;61798;48.048;-1.928;2023-05-14T00:47:10;101516.41;;;8.90;100.00
45050;BME280;61798;48.048;-1.928;2023-05-14T00:49:16;101497.16;;;8.78;100.00
45050;BME280;61798;48.048;-1.928;2023-05-14T00:51:23;101507.06;;;8.94;100.00
45050;BME280;61798;48.048;-1.928;2023-05-14T00:53:30;101497.00;;;8.88;100.00
45050;BME280;61798;48.048;-1.928;2023-05-14T00:55:37;101496.63;;;8.74;100.00
45050;BME280;61798;48.048;-1.928;2023-05-14T00:57:43;101499.81;;;8.78;100.00
45050;BME280;61798;48.048;-1.928;2023-05-14T00:59:49;101502.13;;;8.73;100.00
45050;BME280;61798;48.048;-1.928;2023-05-14T01:01:55;101460.47;;;8.62;100.00
45050;BME280;61798;48.048;-1.928;2023-05-14T01:04:01;101512.47;;;8.76;100.00
45050;BME280;61798;48.048;-1.928;2023-05-14T01:08:31;101510.59;;;8.68;100.00
45050;BME280;61798;48.048;-1.928;2023-05-14T01:11:10;101518.38;;;8.80;100.00
45050;BME280;61798;48.048;-1.928;2023-05-14T01:15:30;101518.28;;;8.63;100.00
45050;BME280;61798;48.048;-1.928;2023-05-14T01:17:42;101470.34;;;8.61;100.00
45050;BME280;61798;48.048;-1.928;2023-05-14T01:19:51;101508.88;;;8.85;100.00
45050;BME280;61798;48.048;-1.928;2023-05-14T01:21:57;101493.56;;;9.04;100.00
45050;BME280;61798;48.048;-1.928;2023-05-14T01:24:03;101508.06;;;8.93;100.00
45050;BME280;61798;48.048;-1.928;2023-05-14T01:26:09;101496.94;;;8.71;100.00
45050;BME280;61798;48.048;-1.928;2023-05-14T01:28:21;101518.66;;;9.03;100.00
45050;BME280;61798;48.048;-1.928;2023-05-14T01:30:34;101521.81;;;8.98;100.00
45050;BME280;61798;48.048;-1.928;2023-05-14T01:32:40;101515.16;;;9.11;100.00
45050;BME280;61798;48.048;-1.928;2023-05-14T01:34:49;101501.22;;;8.91;100.00
45050;BME280;61798;48.048;-1.928;2023-05-14T01:36:56;101511.91;;;8.91;100.00
45050;BME280;61798;48.048;-1.928;2023-05-14T01:39:03;101503.88;;;8.91;100.00
45050;BME280;61798;48.048;-1.928;2023-05-14T01:41:09;101475.91;;;8.76;100.00
45050;BME280;61798;48.048;-1.928;2023-05-14T01:43:15;101503.56;;;8.94;100.00
45050;BME280;61798;48.048;-1.928;2023-05-14T01:45:22;101515.78;;;9.05;100.00
45050;BME280;61798;48.048;-1.928;2023-05-14T01:47:28;101514.28;;;9.02;100.00
45050;BME280;61798;48.048;-1.928;2023-05-14T01:49:34;101486.31;;;8.88;100.00
45050;BME280;61798;48.048;-1.928;2023-05-14T01:51:41;101517.81;;;9.03;100.00
45050;BME280;61798;48.048;-1.928;2023-05-14T01:53:47;101491.69;;;8.96;100.00
45050;BME280;61798;48.048;-1.928;2023-05-14T01:55:53;101464.28;;;8.86;100.00
45050;BME280;61798;48.048;-1.928;2023-05-14T01:57:58;101481.34;;;8.93;100.00
45050;BME280;61798;48.048;-1.928;2023-05-14T02:00:05;101477.38;;;9.06;100.00
45050;BME280;61798;48.048;-1.928;2023-05-14T02:02:11;101495.31;;;9.22;100.00
45050;BME280;61798;48.048;-1.928;2023-05-14T02:04:17;101499.31;;;9.18;100.00
45050;BME280;61798;48.048;-1.928;2023-05-14T02:06:23;101493.28;;;9.24;100.00
45050;BME280;61798;48.048;-1.928;2023-05-14T02:08:29;101494.63;;;9.20;100.00
45050;BME280;61798;48.048;-1.928;2023-05-14T02:10:35;101482.28;;;9.27;100.00
45050;BME280;61798;48.048;-1.928;2023-05-14T02:12:41;101485.94;;;9.18;100.00
45050;BME280;61798;48.048;-1.928;2023-05-14T02:14:47;101479.38;;;9.12;100.00
45050;BME280;61798;48.048;-1.928;2023-05-14T02:16:52;101493.28;;;9.24;100.00
45050;BME280;61798;48.048;-1.928;2023-05-14T02:18:58;101492.34;;;9.42;100.00
45050;BME280;61798;48.048;-1.928;2023-05-14T02:21:04;101488.19;;;9.39;100.00
45050;BME280;61798;48.048;-1.928;2023-05-14T02:23:10;101495.03;;;9.50;100.00
45050;BME280;61798;48.048;-1.928;2023-05-14T02:25:16;101490.69;;;9.49;100.00
45050;BME280;61798;48.048;-1.928;2023-05-14T02:27:22;101484.50;;;9.49;100.00
45050;BME280;61798;48.048;-1.928;2023-05-14T02:29:27;101487.53;;;9.54;100.00
45050;BME280;61798;48.048;-1.928;2023-05-14T02:31:33;101484.66;;;9.56;100.00
45050;BME280;61798;48.048;-1.928;2023-05-14T02:33:39;101481.34;;;9.54;100.00
45050;BME280;61798;48.048;-1.928;2023-05-14T02:35:45;101468.44;;;9.49;100.00
45050;BME280;61798;48.048;-1.928;2023-05-14T02:37:51;101477.19;;;9.59;100.00
45050;BME280;61798;48.048;-1.928;2023-05-14T02:39:57;101474.66;;;9.66;100.00
45050;BME280;61798;48.048;-1.928;2023-05-14T02:42:02;101466.13;;;9.62;100.00
45050;BME280;61798;48.048;-1.928;2023-05-14T02:44:08;101435.34;;;9.41;100.00
45050;BME280;61798;48.048;-1.928;2023-05-14T02:46:14;101459.09;;;9.61;100.00
45050;BME280;61798;48.048;-1.928;2023-05-14T02:48:20;101473.47;;;9.69;100.00
45050;BME280;61798;48.048;-1.928;2023-05-14T02:50:26;101460.59;;;9.64;100.00
45050;BME280;61798;48.048;-1.928;2023-05-14T02:52:32;101434.84;;;9.55;100.00
45050;BME280;61798;48.048;-1.928;2023-05-14T02:54:38;101434.34;;;9.51;100.00
45050;BME280;61798;48.048;-1.928;2023-05-14T02:56:44;101467.13;;;9.78;100.00
45050;BME280;61798;48.048;-1.928;2023-05-14T02:58:49;101466.13;;;9.71;100.00
45050;BME280;61798;48.048;-1.928;2023-05-14T03:00:55;101420.63;;;9.46;100.00
45050;BME280;61798;48.048;-1.928;2023-05-14T03:03:01;101426.63;;;9.48;100.00
45050;BME280;61798;48.048;-1.928;2023-05-14T03:05:07;101465.47;;;9.69;100.00
45050;BME280;61798;48.048;-1.928;2023-05-14T03:07:13;101421.59;;;9.36;100.00
45050;BME280;61798;48.048;-1.928;2023-05-14T03:09:19;101450.91;;;9.55;100.00
45050;BME280;61798;48.048;-1.928;2023-05-14T03:11:25;101464.97;;;9.73;100.00
45050;BME280;61798;48.048;-1.928;2023-05-14T03:13:31;101456.44;;;9.70;100.00
45050;BME280;61798;48.048;-1.928;2023-05-14T03:15:37;101447.88;;;9.58;100.00
45050;BME280;61798;48.048;-1.928;2023-05-14T03:17:42;101419.13;;;9.35;100.00
45050;BME280;61798;48.048;-1.928;2023-05-14T03:19:48;101458.25;;;9.52;100.00
45050;BME280;61798;48.048;-1.928;2023-05-14T03:21:54;101455.25;;;9.47;100.00
45050;BME280;61798;48.048;-1.928;2023-05-14T03:24:00;101420.25;;;9.32;100.00
45050;BME280;61798;48.048;-1.928;2023-05-14T03:26:06;101446.88;;;9.42;100.00
45050;BME280;61798;48.048;-1.928;2023-05-14T03:28:11;101442.69;;;9.39;100.00
45050;BME280;61798;48.048;-1.928;2023-05-14T03:30:17;101432.13;;;9.29;100.00
45050;BME280;61798;48.048;-1.928;2023-05-14T03:32:23;101422.41;;;9.20;100.00
45050;BME280;61798;48.048;-1.928;2023-05-14T03:34:29;101434.16;;;9.44;100.00
45050;BME280;61798;48.048;-1.928;2023-05-14T03:36:35;101434.47;;;9.24;100.00
45050;BME280;61798;48.048;-1.928;2023-05-14T03:38:42;101430.31;;;9.30;100.00
45050;BME280;61798;48.048;-1.928;2023-05-14T03:40:48;101429.47;;;9.38;100.00
45050;BME280;61798;48.048;-1.928;2023-05-14T03:42:54;101434.34;;;9.51;100.00
45050;BME280;61798;48.048;-1.928;2023-05-14T03:45:00;101407.06;;;9.30;100.00
45050;BME280;61798;48.048;-1.928;2023-05-14T03:47:06;101379.94;;;9.08;100.00
45050;BME280;61798;48.048;-1.928;2023-05-14T03:49:12;101412.56;;;9.29;100.00
45050;BME280;61798;48.048;-1.928;2023-05-14T03:51:18;101414.41;;;9.28;100.00
45050;BME280;61798;48.048;-1.928;2023-05-14T03:53:23;101419.22;;;9.16;100.00
45050;BME280;61798;48.048;-1.928;2023-05-14T03:55:29;101399.50;;;9.09;100.00
45050;BME280;61798;48.048;-1.928;2023-05-14T03:57:35;101396.31;;;9.05;100.00
45050;BME280;61798;48.048;-1.928;2023-05-14T03:59:41;101410.22;;;9.17;100.00
45050;BME280;61798;48.048;-1.928;2023-05-14T04:01:47;101393.31;;;9.08;100.00
45050;BME280;61798;48.048;-1.928;2023-05-14T04:03:52;101412.50;;;9.04;100.00
45050;BME280;61798;48.048;-1.928;2023-05-14T04:05:58;101416.72;;;9.06;100.00
45050;BME280;61798;48.048;-1.928;2023-05-14T04:08:04;101397.31;;;9.04;100.00
45050;BME280;61798;48.048;-1.928;2023-05-14T04:10:11;101423.22;;;9.12;100.00
45050;BME280;61798;48.048;-1.928;2023-05-14T04:12:17;101393.53;;;8.63;100.00
45050;BME280;61798;48.048;-1.928;2023-05-14T04:14:23;101423.75;;;8.64;100.00
45050;BME280;61798;48.048;-1.928;2023-05-14T04:16:29;101418.94;;;8.76;100.00
45050;BME280;61798;48.048;-1.928;2023-05-14T04:18:35;101434.53;;;8.89;100.00
45050;BME280;61798;48.048;-1.928;2023-05-14T04:20:41;101424.78;;;8.71;100.00
45050;BME280;61798;48.048;-1.928;2023-05-14T04:22:47;101406.63;;;8.83;100.00
45050;BME280;61798;48.048;-1.928;2023-05-14T04:24:53;101405.03;;;8.64;100.00
45050;BME280;61798;48.048;-1.928;2023-05-14T04:26:59;101431.94;;;8.62;100.00
45050;BME280;61798;48.048;-1.928;2023-05-14T04:29:04;101435.59;;;8.61;100.00
45050;BME280;61798;48.048;-1.928;2023-05-14T04:31:11;101434.59;;;8.62;100.00
45050;BME280;61798;48.048;-1.928;2023-05-14T04:33:16;101431.66;;;8.74;100.00
45050;BME280;61798;48.048;-1.928;2023-05-14T04:35:23;101427.72;;;8.60;100.00
45050;BME280;61798;48.048;-1.928;2023-05-14T04:37:29;101416.59;;;8.38;100.00
45050;BME280;61798;48.048;-1.928;2023-05-14T04:39:36;101390.81;;;8.28;100.00
45050;BME280;61798;48.048;-1.928;2023-05-14T04:41:42;101392.63;;;8.54;100.00
45050;BME280;61798;48.048;-1.928;2023-05-14T04:43:49;101405.41;;;8.69;100.00
45050;BME280;61798;48.048;-1.928;2023-05-14T04:45:55;101424.84;;;8.80;100.00
45050;BME280;61798;48.048;-1.928;2023-05-14T04:48:04;101416.81;;;8.80;100.00
45050;BME280;61798;48.048;-1.928;2023-05-14T04:50:12;101422.63;;;8.75;100.00
45050;BME280;61798;48.048;-1.928;2023-05-14T04:52:18;101430.38;;;8.86;100.00
45050;BME280;61798;48.048;-1.928;2023-05-14T04:54:24;101430.63;;;8.66;100.00
45050;BME280;61798;48.048;-1.928;2023-05-14T04:56:29;101433.84;;;8.78;100.00
45050;BME280;61798;48.048;-1.928;2023-05-14T04:58:35;101441.81;;;8.70;100.00
45050;BME280;61798;48.048;-1.928;2023-05-14T05:00:43;101447.72;;;8.82;100.00
45050;BME280;61798;48.048;-1.928;2023-05-14T05:02:50;101444.25;;;8.90;100.00
45050;BME280;61798;48.048;-1.928;2023-05-14T05:04:57;101425.81;;;8.78;100.00
45050;BME280;61798;48.048;-1.928;2023-05-14T05:07:04;101453.56;;;8.86;100.00
45050;BME280;61798;48.048;-1.928;2023-05-14T05:09:11;101456.47;;;9.01;100.00
45050;BME280;61798;48.048;-1.928;2023-05-14T05:11:18;101444.81;;;9.11;100.00
45050;BME280;61798;48.048;-1.928;2023-05-14T05:13:25;101429.91;;;8.99;100.00
45050;BME280;61798;48.048;-1.928;2023-05-14T05:15:32;101438.25;;;9.05;100.00
45050;BME280;61798;48.048;-1.928;2023-05-14T05:17:39;101429.91;;;9.08;100.00
45050;BME280;61798;48.048;-1.928;2023-05-14T05:19:47;101431.59;;;9.09;100.00
45050;BME280;61798;48.048;-1.928;2023-05-14T05:21:54;101454.03;;;9.25;100.00
45050;BME280;61798;48.048;-1.928;2023-05-14T05:24:01;101441.16;;;9.28;100.00
45050;BME280;61798;48.048;-1.928;2023-05-14T05:26:08;101441.84;;;9.30;100.00
45050;BME280;61798;48.048;-1.928;2023-05-14T05:28:15;101419.75;;;9.20;100.00
45050;BME280;61798;48.048;-1.928;2023-05-14T05:30:24;101428.47;;;9.30;100.00
45050;BME280;61798;48.048;-1.928;2023-05-14T05:32:31;101438.34;;;9.47;100.00
45050;BME280;61798;48.048;-1.928;2023-05-14T05:34:40;101441.19;;;9.45;100.00
45050;BME280;61798;48.048;-1.928;2023-05-14T05:36:47;101434.34;;;9.43;100.00
45050;BME280;61798;48.048;-1.928;2023-05-14T05:38:54;101445.88;;;9.51;100.00
45050;BME280;61798;48.048;-1.928;2023-05-14T05:41:02;101428.50;;;9.47;100.00
45050;BME280;61798;48.048;-1.928;2023-05-14T05:43:09;101436.84;;;9.52;100.00
45050;BME280;61798;48.048;-1.928;2023-05-14T05:45:14;101442.19;;;9.52;100.00
45050;BME280;61798;48.048;-1.928;2023-05-14T05:47:21;101454.56;;;9.54;100.00
45050;BME280;61798;48.048;-1.928;2023-05-14T05:49:29;101443.38;;;9.50;100.00
45050;BME280;61798;48.048;-1.928;2023-05-14T05:51:36;101451.72;;;9.63;100.00
45050;BME280;61798;48.048;-1.928;2023-05-14T05:53:43;101448.41;;;9.61;100.00
45050;BME280;61798;48.048;-1.928;2023-05-14T05:55:50;101456.09;;;9.65;100.00
45050;BME280;61798;48.048;-1.928;2023-05-14T05:58:02;101459.09;;;9.70;100.00
45050;BME280;61798;48.048;-1.928;2023-05-14T06:00:10;101451.41;;;9.67;100.00
45050;BME280;61798;48.048;-1.928;2023-05-14T06:02:23;101462.78;;;9.77;100.00
45050;BME280;61798;48.048;-1.928;2023-05-14T06:04:34;101453.06;;;9.76;100.00
45050;BME280;61798;48.048;-1.928;2023-05-14T06:06:41;101455.59;;;9.78;100.00
45050;BME280;61798;48.048;-1.928;2023-05-14T06:08:48;101458.09;;;9.79;100.00
45050;BME280;61798;48.048;-1.928;2023-05-14T06:10:54;101450.88;;;9.71;100.00
45050;BME280;61798;48.048;-1.928;2023-05-14T06:13:01;101466.13;;;9.79;100.00
45050;BME280;61798;48.048;-1.928;2023-05-14T06:15:09;101463.44;;;9.88;100.00
45050;BME280;61798;48.048;-1.928;2023-05-14T06:17:14;101468.28;;;9.84;100.00
45050;BME280;61798;48.048;-1.928;2023-05-14T06:19:21;101478.16;;;9.92;100.00
45050;BME280;61798;48.048;-1.928;2023-05-14T06:21:27;101437.00;;;9.76;100.00
45050;BME280;61798;48.048;-1.928;2023-05-14T06:23:33;101462.59;;;9.96;100.00
45050;BME280;61798;48.048;-1.928;2023-05-14T06:25:38;101455.59;;;10.03;100.00
45050;BME280;61798;48.048;-1.928;2023-05-14T06:27:44;101441.72;;;9.82;100.00
45050;BME280;61798;48.048;-1.928;2023-05-14T06:29:50;101481.84;;;10.08;100.00
45050;BME280;61798;48.048;-1.928;2023-05-14T06:32:00;101432.84;;;9.82;100.00
45050;BME280;61798;48.048;-1.928;2023-05-14T06:34:09;101469.78;;;10.03;100.00
45050;BME280;61798;48.048;-1.928;2023-05-14T06:36:15;101481.84;;;10.08;100.00
45050;BME280;61798;48.048;-1.928;2023-05-14T06:38:21;101477.31;;;10.08;100.00
45050;BME280;61798;48.048;-1.928;2023-05-14T06:40:27;101458.44;;;10.01;100.00
45050;BME280;61798;48.048;-1.928;2023-05-14T06:42:33;101421.63;;;9.70;100.00
45050;BME280;61798;48.048;-1.928;2023-05-14T06:44:39;101471.13;;;10.16;100.00
45050;BME280;61798;48.048;-1.928;2023-05-14T06:46:45;101443.19;;;10.02;100.00
45050;BME280;61798;48.048;-1.928;2023-05-14T06:48:51;101456.59;;;10.10;100.00
45050;BME280;61798;48.048;-1.928;2023-05-14T06:50:58;101445.88;;;10.02;100.00
45050;BME280;61798;48.048;-1.928;2023-05-14T06:53:04;101443.69;;;10.05;100.00
45050;BME280;61798;48.048;-1.928;2023-05-14T06:55:12;101446.03;;;10.09;100.00
45050;BME280;61798;48.048;-1.928;2023-05-14T06:57:18;101473.13;;;10.22;100.00
45050;BME280;61798;48.048;-1.928;2023-05-14T06:59:23;101462.75;;;10.19;100.00
45050;BME280;61798;48.048;-1.928;2023-05-14T07:01:29;101466.25;;;10.36;100.00
45050;BME280;61798;48.048;-1.928;2023-05-14T07:03:35;101468.41;;;10.41;100.00
45050;BME280;61798;48.048;-1.928;2023-05-14T07:05:41;101450.03;;;10.30;100.00
45050;BME280;61798;48.048;-1.928;2023-05-14T07:07:49;101454.31;;;10.39;100.00
45050;BME280;61798;48.048;-1.928;2023-05-14T07:09:55;101433.97;;;10.21;100.00
45050;BME280;61798;48.048;-1.928;2023-05-14T07:12:01;101424.06;;;10.30;100.00
45050;BME280;61798;48.048;-1.928;2023-05-14T07:14:07;101456.47;;;10.52;100.00
45050;BME280;61798;48.048;-1.928;2023-05-14T07:16:12;101447.94;;;10.49;100.00
45050;BME280;61798;48.048;-1.928;2023-05-14T07:18:20;101441.25;;;10.53;100.00
45050;BME280;61798;48.048;-1.928;2023-05-14T07:20:29;101449.63;;;10.50;100.00
45050;BME280;61798;48.048;-1.928;2023-05-14T07:22:37;101452.97;;;10.60;100.00
45050;BME280;61798;48.048;-1.928;2023-05-14T07:24:46;101460.00;;;10.61;100.00
45050;BME280;61798;48.048;-1.928;2023-05-14T07:26:53;101469.72;;;10.71;100.00
45050;BME280;61798;48.048;-1.928;2023-05-14T07:29:02;101431.22;;;10.55;100.00
45050;BME280;61798;48.048;-1.928;2023-05-14T07:31:16;101462.81;;;10.76;100.00
45050;BME280;61798;48.048;-1.928;2023-05-14T07:33:26;101467.81;;;10.79;100.00
45050;BME280;61798;48.048;-1.928;2023-05-14T07:35:34;101391.41;;;10.35;100.00
45050;BME280;61798;48.048;-1.928;2023-05-14T07:37:41;101388.06;;;10.33;100.00
45050;BME280;61798;48.048;-1.928;2023-05-14T07:39:50;101416.66;;;10.41;100.00
45050;BME280;61798;48.048;-1.928;2023-05-14T07:42:02;101421.84;;;10.51;100.00
45050;BME280;61798;48.048;-1.928;2023-05-14T07:44:11;101437.81;;;10.76;100.00
45050;BME280;61798;48.048;-1.928;2023-05-14T07:46:18;101463.09;;;10.90;100.00
45050;BME280;61798;48.048;-1.928;2023-05-14T07:48:24;101417.13;;;10.53;100.00
45050;BME280;61798;48.048;-1.928;2023-05-14T07:50:37;101437.81;;;10.76;100.00
45050;BME280;61798;48.048;-1.928;2023-05-14T07:52:44;101442.31;;;10.84;100.00
45050;BME280;61798;48.048;-1.928;2023-05-14T07:54:58;101412.34;;;10.80;100.00
45050;BME280;61798;48.048;-1.928;2023-05-14T07:57:07;101442.13;;;10.94;100.00
45050;BME280;61798;48.048;-1.928;2023-05-14T07:59:17;101455.13;;;11.05;100.00
45050;BME280;61798;48.048;-1.928;2023-05-14T08:01:24;101435.56;;;10.96;100.00
45050;BME280;61798;48.048;-1.928;2023-05-14T08:03:31;101465.78;;;11.22;100.00
45050;BME280;61798;48.048;-1.928;2023-05-14T08:05:39;101394.94;;;10.76;100.00
45050;BME280;61798;48.048;-1.928;2023-05-14T08:07:49;101466.47;;;11.16;100.00
45050;BME280;61798;48.048;-1.928;2023-05-14T08:09:57;101436.41;;;10.97;100.00
45050;BME280;61798;48.048;-1.928;2023-05-14T08:12:03;101456.94;;;11.13;100.00
45050;BME280;61798;48.048;-1.928;2023-05-14T08:14:11;101433.69;;;11.05;100.00
45050;BME280;61798;48.048;-1.928;2023-05-14T08:16:17;101445.00;;;11.16;100.00
45050;BME280;61798;48.048;-1.928;2023-05-14T08:18:29;101454.31;;;11.28;100.00
45050;BME280;61798;48.048;-1.928;2023-05-14T08:20:35;101458.38;;;11.24;100.00
45050;BME280;61798;48.048;-1.928;2023-05-14T08:22:41;101464.13;;;11.45;100.00
45050;BME280;61798;48.048;-1.928;2023-05-14T08:24:47;101439.84;;;11.38;100.00
45050;BME280;61798;48.048;-1.928;2023-05-14T08:26:54;101432.59;;;11.15;100.00
45050;BME280;61798;48.048;-1.928;2023-05-14T08:29:04;101464.34;;;11.35;100.00
45050;BME280;61798;48.048;-1.928;2023-05-14T08:31:36;101380.59;;;10.92;100.00
45050;BME280;61798;48.048;-1.928;2023-05-14T08:33:49;101468.44;;;11.54;100.00
45050;BME280;61798;48.048;-1.928;2023-05-14T08:36:03;101422.50;;;11.49;100.00
45050;BME280;61798;48.048;-1.928;2023-05-14T08:38:15;101452.31;;;11.78;100.00
45050;BME280;61798;48.048;-1.928;2023-05-14T08:40:24;101454.91;;;11.86;100.00
45050;BME280;61798;48.048;-1.928;2023-05-14T08:42:32;101383.06;;;11.49;100.00
45050;BME280;61798;48.048;-1.928;2023-05-14T08:44:52;101416.47;;;11.86;100.00
45050;BME280;61798;48.048;-1.928;2023-05-14T08:47:04;101389.22;;;11.58;100.00
45050;BME280;61798;48.048;-1.928;2023-05-14T08:49:43;101438.19;;;12.14;100.00
45050;BME280;61798;48.048;-1.928;2023-05-14T08:51:51;101429.19;;;12.07;100.00
45050;BME280;61798;48.048;-1.928;2023-05-14T08:54:01;101420.81;;;11.87;100.00
45050;BME280;61798;48.048;-1.928;2023-05-14T08:56:18;101434.13;;;12.19;100.00
45050;BME280;61798;48.048;-1.928;2023-05-14T08:58:33;101414.31;;;12.35;100.00
45050;BME280;61798;48.048;-1.928;2023-05-14T09:00:43;101432.94;;;12.67;100.00
45050;BME280;61798;48.048;-1.928;2023-05-14T09:02:50;101434.88;;;12.58;100.00
45050;BME280;61798;48.048;-1.928;2023-05-14T09:04:58;101407.81;;;12.60;100.00
45050;BME280;61798;48.048;-1.928;2023-05-14T09:07:04;101416.41;;;12.85;100.00
45050;BME280;61798;48.048;-1.928;2023-05-14T09:09:12;101415.16;;;12.66;100.00
45050;BME280;61798;48.048;-1.928;2023-05-14T09:11:18;101385.53;;;12.81;100.00
45050;BME280;61798;48.048;-1.928;2023-05-14T09:13:25;101366.72;;;12.81;100.00
45050;BME280;61798;48.048;-1.928;2023-05-14T09:15:31;101394.47;;;13.04;100.00
45050;BME280;61798;48.048;-1.928;2023-05-14T09:17:39;101339.41;;;12.84;100.00
45050;BME280;61798;48.048;-1.928;2023-05-14T09:19:47;101406.00;;;13.41;100.00
45050;BME280;61798;48.048;-1.928;2023-05-14T09:21:57;101377.88;;;13.44;100.00
45050;BME280;61798;48.048;-1.928;2023-05-14T09:24:07;101344.72;;;13.43;100.00
45050;BME280;61798;48.048;-1.928;2023-05-14T09:26:16;101384.72;;;13.25;100.00
45050;BME280;61798;48.048;-1.928;2023-05-14T09:28:24;101359.78;;;13.38;100.00
45050;BME280;61798;48.048;-1.928;2023-05-14T09:30:32;101354.88;;;13.70;100.00
45050;BME280;61798;48.048;-1.928;2023-05-14T09:32:41;101395.72;;;14.03;100.00
45050;BME280;61798;48.048;-1.928;2023-05-14T09:34:56;101357.88;;;13.82;100.00
45050;BME280;61798;48.048;-1.928;2023-05-14T09:37:06;101360.13;;;13.79;100.00
45050;BME280;61798;48.048;-1.928;2023-05-14T09:39:13;101343.34;;;13.77;100.00
45050;BME280;61798;48.048;-1.928;2023-05-14T09:41:19;101353.28;;;14.12;100.00
45050;BME280;61798;48.048;-1.928;2023-05-14T09:43:30;101363.78;;;14.00;100.00
45050;BME280;61798;48.048;-1.928;2023-05-14T09:45:36;101369.41;;;14.05;100.00
45050;BME280;61798;48.048;-1.928;2023-05-14T09:47:43;101386.63;;;14.46;100.00
45050;BME280;61798;48.048;-1.928;2023-05-14T09:49:49;101379.38;;;14.47;100.00
45050;BME280;61798;48.048;-1.928;2023-05-14T09:51:55;101349.38;;;14.21;100.00
45050;BME280;61798;48.048;-1.928;2023-05-14T09:54:06;101383.00;;;14.75;100.00
45050;BME280;61798;48.048;-1.928;2023-05-14T09:56:12;101378.66;;;14.80;100.00
45050;BME280;61798;48.048;-1.928;2023-05-14T09:58:18;101370.41;;;14.40;100.00
45050;BME280;61798;48.048;-1.928;2023-05-14T10:00:25;101376.31;;;14.64;100.00
45050;BME280;61798;48.048;-1.928;2023-05-14T10:02:35;101379.16;;;15.05;100.00
45050;BME280;61798;48.048;-1.928;2023-05-14T10:04:53;101379.25;;;14.76;100.00
45050;BME280;61798;48.048;-1.928;2023-05-14T10:06:59;101379.16;;;15.11;100.00
45050;BME280;61798;48.048;-1.928;2023-05-14T10:09:18;101362.97;;;15.18;100.00
45050;BME280;61798;48.048;-1.928;2023-05-14T10:11:31;101372.16;;;15.45;100.00
45050;BME280;61798;48.048;-1.928;2023-05-14T10:13:41;101373.56;;;15.33;100.00
45050;BME280;61798;48.048;-1.928;2023-05-14T10:16:01;101357.56;;;15.05;100.00
45050;BME280;61798;48.048;-1.928;2023-05-14T10:18:12;101366.72;;;15.38;100.00
45050;BME280;61798;48.048;-1.928;2023-05-14T10:20:24;101340.94;;;15.49;100.00
45050;BME280;61798;48.048;-1.928;2023-05-14T10:22:33;101366.94;;;15.63;100.00
45050;BME280;61798;48.048;-1.928;2023-05-14T10:24:44;101364.63;;;15.88;100.00
45050;BME280;61798;48.048;-1.928;2023-05-14T10:26:55;101355.03;;;16.12;100.00
45050;BME280;61798;48.048;-1.928;2023-05-14T10:29:01;101352.72;;;16.02;100.00
45050;BME280;61798;48.048;-1.928;2023-05-14T10:31:11;101353.97;;;16.20;100.00
45050;BME280;61798;48.048;-1.928;2023-05-14T10:33:19;101349.81;;;15.97;100.00
45050;BME280;61798;48.048;-1.928;2023-05-14T10:35:27;101325.22;;;16.26;100.00
45050;BME280;61798;48.048;-1.928;2023-05-14T10:37:34;101343.28;;;16.32;100.00
45050;BME280;61798;48.048;-1.928;2023-05-14T10:39:49;101356.06;;;16.57;100.00
45050;BME280;61798;48.048;-1.928;2023-05-14T10:41:58;101350.16;;;16.74;100.00
45050;BME280;61798;48.048;-1.928;2023-05-14T10:44:07;101346.81;;;16.72;100.00
45050;BME280;61798;48.048;-1.928;2023-05-14T10:46:15;101324.44;;;16.58;100.00
45050;BME280;61798;48.048;-1.928;2023-05-14T10:48:22;101350.69;;;16.90;100.00
45050;BME280;61798;48.048;-1.928;2023-05-14T10:50:30;101334.53;;;16.76;100.00
45050;BME280;61798;48.048;-1.928;2023-05-14T10:52:40;101328.56;;;16.60;100.00
45050;BME280;61798;48.048;-1.928;2023-05-14T10:55:04;101325.22;;;16.65;100.00
45050;BME280;61798;48.048;-1.928;2023-05-14T10:57:21;101349.00;;;16.56;100.00
45050;BME280;61798;48.048;-1.928;2023-05-14T10:59:28;101311.44;;;16.34;100.00